Crevillente, Spain
Current Conditions -  °F | °C
As of 6:30 AM on Sunday 26 Oct 2014 (Local Time) from LEAL Reporting Station
Clear Clear  
Wind Chill: 61°   Ceiling: Unl
Heat Index: 61°   Visibility: 6mi
Dew Point: 45°   Wind: 2mph
Humidity: 55%   Direction: NA
Pressure: 30.12"   Gusts: NA
Location:  38.25°N, 0.81°W
Report Text: LEAL 260430Z VRB02KT CAVOK 16/07 Q1020 NOSIG
Loading
Personal Weather Stations






























Interactive Weather Map
Tropical Storm Tracking
New forecast layout! Learn more

10-Day Weather Forecast

Advertisements
Track Severe Weather on mobile